Time;durP1;ratioP1;P1;durP2;ratioP2;P2;SDS_P1;SDS_P2;PMS_P1;PMS_P2;Temp;Humidity;BMP_temperature;BMP_pressure;BME280_temperature;BME280_humidity;BME280_pressure;Samples;Min_cycle;Max_cycle;Signal;HPM_P1;HPM_P2
2023/11/19 00:00:29;;;;;;;1.85;0.98;;;8.30;99.90;;;;;;5060700;28;20017;-89
2023/11/19 00:02:55;;;;;;;1.60;1.30;;;8.30;99.90;;;;;;5043029;28;20014;-89
2023/11/19 00:05:23;;;;;;;1.38;0.77;;;8.40;99.90;;;;;;5042295;28;20523;-89
2023/11/19 00:07:49;;;;;;;1.55;0.88;;;8.50;99.90;;;;;;5039909;28;20029;-89
2023/11/19 00:10:18;;;;;;;0.88;0.80;;;8.40;99.90;;;;;;5052106;28;20037;-88
2023/11/19 00:12:46;;;;;;;0.82;0.73;;;8.40;99.90;;;;;;5042631;28;20033;-89
2023/11/19 00:15:12;;;;;;;0.90;0.90;;;8.30;99.90;;;;;;5057239;28;20025;-89
2023/11/19 00:17:45;;;;;;;0.90;0.88;;;8.40;99.90;;;;;;5062637;28;20029;-89
2023/11/19 00:20:18;;;;;;;1.13;0.70;;;8.30;99.90;;;;;;5045951;28;20033;-90
2023/11/19 00:22:46;;;;;;;0.75;0.70;;;8.30;99.90;;;;;;5057575;28;20017;-89
2023/11/19 00:25:11;;;;;;;0.90;0.80;;;8.40;99.90;;;;;;5043197;28;20053;-89
2023/11/19 00:27:37;;;;;;;2.25;0.73;;;8.40;99.90;;;;;;5045264;28;20065;-89
2023/11/19 00:30:06;;;;;;;1.75;0.80;;;8.50;99.90;;;;;;5041672;28;20044;-89
2023/11/19 00:32:33;;;;;;;0.82;0.73;;;8.50;99.90;;;;;;5060991;28;20724;-91
2023/11/19 00:34:58;;;;;;;1.17;0.70;;;8.50;99.90;;;;;;5049202;28;20159;-90
2023/11/19 00:37:24;;;;;;;0.82;0.82;;;8.50;99.90;;;;;;5067117;28;20104;-90
2023/11/19 00:39:52;;;;;;;1.90;0.80;;;8.50;99.90;;;;;;5048570;28;20037;-90
2023/11/19 00:42:18;;;;;;;1.13;0.60;;;8.50;99.90;;;;;;5051281;28;20025;-89
2023/11/19 00:44:45;;;;;;;1.10;1.00;;;8.40;99.90;;;;;;5050300;28;20052;-89
2023/11/19 00:47:20;;;;;;;0.70;0.68;;;8.50;99.90;;;;;;5047923;28;20075;-87
2023/11/19 00:49:50;;;;;;;2.45;0.82;;;8.60;99.90;;;;;;5048188;28;20447;-89
2023/11/19 00:52:19;;;;;;;0.93;0.70;;;8.60;99.90;;;;;;5044979;28;20658;-89
2023/11/19 00:54:45;;;;;;;0.68;0.68;;;8.60;99.90;;;;;;5044474;28;20026;-89
2023/11/19 00:57:11;;;;;;;2.08;0.90;;;8.60;99.90;;;;;;5048472;28;20087;-89
2023/11/19 00:59:37;;;;;;;2.70;0.57;;;8.60;99.90;;;;;;5047111;28;20116;-90
2023/11/19 01:02:06;;;;;;;1.33;0.90;;;8.70;99.90;;;;;;5044620;28;20028;-85
2023/11/19 01:04:38;;;;;;;0.80;0.80;;;8.60;99.90;;;;;;5043513;28;20060;-89
2023/11/19 01:07:09;;;;;;;0.90;0.80;;;8.60;99.90;;;;;;5043365;28;20712;-89
2023/11/19 01:09:37;;;;;;;0.80;0.77;;;8.60;99.90;;;;;;5063747;28;20052;-88
2023/11/19 01:12:03;;;;;;;1.17;0.80;;;8.70;99.90;;;;;;5046632;28;20056;-89
2023/11/19 01:14:30;;;;;;;0.90;0.80;;;8.70;99.90;;;;;;5061692;28;20029;-90
2023/11/19 01:17:00;;;;;;;2.35;1.10;;;8.80;99.90;;;;;;5045756;28;20033;-89
2023/11/19 01:19:28;;;;;;;0.80;0.73;;;8.80;99.90;;;;;;5046706;28;20021;-89
2023/11/19 01:21:56;;;;;;;0.85;0.80;;;8.90;99.90;;;;;;5045102;28;20119;-89
2023/11/19 01:24:22;;;;;;;1.65;0.95;;;8.90;99.90;;;;;;5044380;28;20518;-88
2023/11/19 01:26:48;;;;;;;2.17;0.82;;;8.90;99.90;;;;;;5047181;28;20029;-90
2023/11/19 01:29:15;;;;;;;0.77;0.70;;;8.90;99.90;;;;;;5046231;28;20744;-89
2023/11/19 01:31:45;;;;;;;0.63;0.63;;;8.90;99.90;;;;;;5059951;28;20032;-90
2023/11/19 01:34:11;;;;;;;1.15;0.75;;;8.90;99.90;;;;;;5040990;28;20124;-89
2023/11/19 01:36:37;;;;;;;0.82;0.77;;;9.00;99.90;;;;;;5066299;28;20094;-89
2023/11/19 01:39:05;;;;;;;0.73;0.60;;;9.00;99.90;;;;;;5049184;28;20025;-90
2023/11/19 01:41:35;;;;;;;;;;;8.90;99.90;;;;;;5046263;28;20037;-89
2023/11/19 01:44:01;;;;;;;0.55;0.52;;;9.00;99.90;;;;;;5044972;28;19916;-89
2023/11/19 01:46:27;;;;;;;0.80;0.70;;;9.00;99.90;;;;;;5062573;28;20025;-89
2023/11/19 01:48:55;;;;;;;1.00;0.52;;;9.00;99.90;;;;;;5061761;28;20029;-89
2023/11/19 01:51:23;;;;;;;;;;;9.10;99.90;;;;;;5041253;28;20021;-87
2023/11/19 01:53:49;;;;;;;1.00;0.77;;;9.10;99.90;;;;;;5059077;28;19912;-89
2023/11/19 01:56:16;;;;;;;2.15;0.98;;;9.10;99.90;;;;;;5044225;28;20031;-89
2023/11/19 01:58:44;;;;;;;1.80;0.47;;;9.20;99.90;;;;;;5063603;28;20025;-89
2023/11/19 02:01:11;;;;;;;3.42;0.65;;;9.20;99.90;;;;;;5047627;28;20028;-89
2023/11/19 02:03:38;;;;;;;0.65;0.60;;;9.20;99.90;;;;;;5042960;28;20037;-87
2023/11/19 02:06:05;;;;;;;1.58;0.75;;;9.20;99.90;;;;;;5046138;28;20083;-89
2023/11/19 02:08:31;;;;;;;2.20;0.75;;;9.20;99.90;;;;;;5045981;28;20034;-90
2023/11/19 02:10:58;;;;;;;0.63;0.35;;;9.20;99.90;;;;;;5065409;28;20428;-89
2023/11/19 02:13:25;;;;;;;1.17;0.80;;;9.20;99.90;;;;;;5049191;28;20067;-89
2023/11/19 02:15:50;;;;;;;1.10;0.47;;;9.20;99.90;;;;;;5026918;28;20044;-88
2023/11/19 02:18:28;;;;;;;0.73;0.52;;;9.30;99.90;;;;;;5061414;28;20465;-88
2023/11/19 02:20:59;;;;;;;0.60;0.50;;;9.30;99.90;;;;;;5048836;28;20439;-90
2023/11/19 02:23:32;;;;;;;1.25;0.60;;;9.30;99.90;;;;;;5016784;28;20282;-91
2023/11/19 02:26:16;;;;;;;0.68;0.32;;;9.30;99.90;;;;;;5059323;28;20721;-90
2023/11/19 02:28:43;;;;;;;0.40;0.40;;;9.40;99.90;;;;;;5048163;28;20036;-90
2023/11/19 02:31:09;;;;;;;2.35;0.70;;;9.40;99.90;;;;;;5045517;28;20020;-90
2023/11/19 02:33:36;;;;;;;0.80;0.60;;;9.40;99.90;;;;;;5047493;28;20025;-89
2023/11/19 02:36:03;;;;;;;0.25;0.25;;;9.40;99.90;;;;;;5057076;28;20033;-90
2023/11/19 02:38:30;;;;;;;4.60;0.43;;;9.40;99.90;;;;;;5047750;28;20048;-89
2023/11/19 02:40:56;;;;;;;0.20;0.20;;;9.50;99.90;;;;;;5044644;28;20278;-90
2023/11/19 02:43:22;;;;;;;0.22;0.22;;;9.50;99.90;;;;;;5048910;28;20021;-89
2023/11/19 02:45:55;;;;;;;0.50;0.32;;;9.60;99.90;;;;;;5042825;28;20079;-89
2023/11/19 02:48:23;;;;;;;0.17;0.17;;;9.60;99.90;;;;;;5048833;28;20029;-89
2023/11/19 02:50:48;;;;;;;1.83;0.30;;;9.60;99.90;;;;;;5049749;28;20043;-90
2023/11/19 02:53:16;;;;;;;0.73;0.38;;;9.70;99.90;;;;;;5040110;28;20040;-89
2023/11/19 02:55:48;;;;;;;0.90;0.38;;;9.60;99.90;;;;;;5049969;28;20024;-89
2023/11/19 02:58:19;;;;;;;0.60;0.40;;;9.70;99.90;;;;;;5059604;28;20032;-90
2023/11/19 03:00:54;;;;;;;0.20;0.20;;;9.80;99.90;;;;;;5046013;28;20029;-89
2023/11/19 03:03:26;;;;;;;0.30;0.30;;;9.80;99.90;;;;;;5048656;28;20515;-91
2023/11/19 03:05:51;;;;;;;1.27;0.30;;;9.80;99.90;;;;;;5045808;28;20067;-89
2023/11/19 03:08:17;;;;;;;0.57;0.28;;;9.90;99.90;;;;;;5046814;28;20060;-89
2023/11/19 03:10:43;;;;;;;1.17;0.30;;;9.80;99.90;;;;;;5046522;28;20115;-90
2023/11/19 03:13:14;;;;;;;0.20;0.20;;;9.90;99.90;;;;;;5044099;28;20064;-90
2023/11/19 03:15:40;;;;;;;0.70;0.32;;;9.90;99.90;;;;;;5055772;28;20030;-89
2023/11/19 03:18:07;;;;;;;1.48;0.40;;;9.90;99.90;;;;;;5051473;28;20052;-91
2023/11/19 03:20:33;;;;;;;4.45;0.45;;;10.00;99.90;;;;;;5046649;28;20025;-90
2023/11/19 03:23:06;;;;;;;0.55;0.20;;;10.00;99.90;;;;;;5047271;28;20021;-90
2023/11/19 03:25:36;;;;;;;0.40;0.30;;;10.00;99.90;;;;;;5065161;28;20041;-91
2023/11/19 03:28:02;;;;;;;0.57;0.35;;;10.00;99.90;;;;;;5043864;28;20579;-90
2023/11/19 03:30:28;;;;;;;0.40;0.40;;;10.00;99.90;;;;;;5061621;28;20036;-90
2023/11/19 03:32:55;;;;;;;0.50;0.40;;;10.10;99.90;;;;;;5048213;28;20119;-90
2023/11/19 03:35:21;;;;;;;3.78;0.40;;;10.10;99.90;;;;;;5043921;28;20021;-90
2023/11/19 03:37:48;;;;;;;1.40;0.50;;;10.10;99.90;;;;;;5046966;28;20040;-89
2023/11/19 03:40:14;;;;;;;0.45;0.43;;;10.20;99.90;;;;;;5046777;28;20142;-90
2023/11/19 03:42:40;;;;;;;0.45;0.40;;;10.20;99.90;;;;;;5051601;28;20472;-90
2023/11/19 03:45:08;;;;;;;0.50;0.45;;;10.20;99.90;;;;;;5048909;28;20025;-89
2023/11/19 03:47:34;;;;;;;0.43;0.40;;;10.20;99.90;;;;;;5046953;28;20036;-89
2023/11/19 03:50:00;;;;;;;0.98;0.45;;;10.20;99.90;;;;;;5044482;28;20029;-90
2023/11/19 03:52:28;;;;;;;0.50;0.50;;;10.30;99.90;;;;;;5046592;28;20029;-90
2023/11/19 03:54:57;;;;;;;0.85;0.70;;;10.30;99.90;;;;;;5046201;28;20595;-90
2023/11/19 03:57:23;;;;;;;0.50;0.43;;;10.30;99.90;;;;;;5046321;28;20036;-90
2023/11/19 03:59:49;;;;;;;0.82;0.60;;;10.40;99.90;;;;;;5059578;28;20149;-90
2023/11/19 04:02:17;;;;;;;0.70;0.50;;;10.40;99.90;;;;;;5043753;28;20021;-90
2023/11/19 04:04:43;;;;;;;0.57;0.52;;;10.40;99.90;;;;;;5045255;28;20033;-89
2023/11/19 04:07:09;;;;;;;0.68;0.52;;;10.40;99.90;;;;;;5046073;28;20534;-89
2023/11/19 04:09:35;;;;;;;0.80;0.60;;;10.40;99.90;;;;;;5048081;28;20044;-89
2023/11/19 04:12:01;;;;;;;0.73;0.60;;;10.40;99.90;;;;;;5048106;28;20033;-90
2023/11/19 04:14:27;;;;;;;2.15;0.70;;;10.40;99.90;;;;;;5046296;28;20021;-91
2023/11/19 04:16:53;;;;;;;0.80;0.60;;;10.40;99.90;;;;;;5064904;28;20095;-91
2023/11/19 04:19:19;;;;;;;0.60;0.57;;;10.50;99.90;;;;;;5044288;28;20431;-89
2023/11/19 04:21:46;;;;;;;0.85;0.65;;;10.40;99.90;;;;;;5044230;28;20028;-90
2023/11/19 04:24:13;;;;;;;0.63;0.63;;;10.50;99.90;;;;;;5045316;28;20096;-91
2023/11/19 04:26:42;;;;;;;1.27;0.90;;;10.50;99.90;;;;;;5038452;28;20026;-90
2023/11/19 04:29:19;;;;;;;0.95;0.75;;;10.50;99.90;;;;;;5040075;28;20040;-90
2023/11/19 04:31:45;;;;;;;0.60;0.55;;;10.60;99.90;;;;;;5046210;28;20163;-90
2023/11/19 04:34:11;;;;;;;1.38;0.80;;;10.60;99.90;;;;;;5045001;28;20499;-90
2023/11/19 04:36:37;;;;;;;1.13;0.90;;;10.70;99.90;;;;;;5062370;28;20037;-88
2023/11/19 04:39:09;;;;;;;1.10;0.70;;;10.60;99.90;;;;;;5046015;28;20029;-89
2023/11/19 04:41:35;;;;;;;3.80;1.42;;;10.60;99.90;;;;;;5063812;28;20025;-90
2023/11/19 04:44:01;;;;;;;1.08;0.98;;;10.60;99.90;;;;;;5044536;28;20025;-91
2023/11/19 04:46:29;;;;;;;1.05;0.93;;;10.60;99.90;;;;;;5061521;28;20025;-90
2023/11/19 04:48:54;;;;;;;2.67;1.40;;;10.70;99.90;;;;;;5043832;28;20025;-91
2023/11/19 04:51:22;;;;;;;4.22;1.58;;;10.70;99.90;;;;;;5047539;28;20031;-91
2023/11/19 04:53:47;;;;;;;3.93;1.40;;;10.70;99.90;;;;;;5044179;28;20036;-90
2023/11/19 04:56:13;;;;;;;2.33;1.70;;;10.70;99.90;;;;;;5047431;28;20269;-90
2023/11/19 04:58:39;;;;;;;2.80;1.70;;;10.70;99.90;;;;;;5065199;28;20092;-90
2023/11/19 05:01:05;;;;;;;2.78;1.77;;;10.70;99.90;;;;;;5061277;28;20113;-91
2023/11/19 05:03:31;;;;;;;4.43;2.15;;;10.80;99.90;;;;;;5062214;28;20031;-90
2023/11/19 05:05:57;;;;;;;5.53;2.35;;;10.80;99.90;;;;;;5062787;28;20105;-91
2023/11/19 05:08:23;;;;;;;3.80;2.10;;;10.80;99.90;;;;;;5027104;28;20037;-91
2023/11/19 05:10:51;;;;;;;4.55;2.72;;;10.90;99.90;;;;;;5044836;28;20037;-89
2023/11/19 05:13:17;;;;;;;7.15;2.63;;;10.90;99.90;;;;;;5042351;28;20500;-90
2023/11/19 05:15:43;;;;;;;4.68;2.67;;;10.90;99.90;;;;;;5040024;28;20035;-90
2023/11/19 05:18:08;;;;;;;7.18;3.75;;;10.90;99.90;;;;;;5039377;28;20033;-90
2023/11/19 05:20:34;;;;;;;10.35;3.13;;;11.00;99.90;;;;;;5060478;28;20057;-90
2023/11/19 05:23:02;;;;;;;8.57;3.40;;;11.00;99.90;;;;;;5060114;28;20442;-91
2023/11/19 05:25:27;;;;;;;8.07;3.20;;;11.00;99.90;;;;;;5063304;28;20033;-91
2023/11/19 05:27:56;;;;;;;7.70;3.42;;;11.10;99.90;;;;;;5047610;28;20125;-91
2023/11/19 05:30:23;;;;;;;5.25;3.25;;;11.10;99.90;;;;;;5064557;28;20021;-91
2023/11/19 05:32:49;;;;;;;3.92;3.28;;;11.10;99.90;;;;;;5060553;28;20379;-90
2023/11/19 05:35:15;;;;;;;6.65;3.53;;;11.10;99.90;;;;;;5046151;28;20041;-90
2023/11/19 05:37:41;;;;;;;5.20;3.67;;;11.20;99.90;;;;;;5047731;28;20033;-91
2023/11/19 05:40:14;;;;;;;7.75;3.67;;;11.20;99.90;;;;;;5045168;28;20016;-89
2023/11/19 05:42:45;;;;;;;7.65;5.07;;;11.20;99.90;;;;;;5046604;28;20396;-90
2023/11/19 05:45:14;;;;;;;6.50;3.53;;;11.20;99.90;;;;;;5066370;28;20104;-91
2023/11/19 05:47:40;;;;;;;10.82;4.07;;;11.20;99.90;;;;;;5047803;28;20033;-90
2023/11/19 05:50:10;;;;;;;7.57;4.05;;;11.30;99.90;;;;;;5061951;28;20036;-91
2023/11/19 05:52:35;;;;;;;6.20;3.83;;;11.30;99.90;;;;;;5064695;28;20036;-91
2023/11/19 05:55:04;;;;;;;7.80;3.47;;;11.30;99.90;;;;;;5049017;28;20033;-91
2023/11/19 05:57:34;;;;;;;6.40;3.15;;;11.30;99.90;;;;;;5048717;28;20037;-91
2023/11/19 06:00:03;;;;;;;11.30;4.80;;;11.30;99.90;;;;;;5048846;28;20495;-90
2023/11/19 06:02:28;;;;;;;9.20;4.10;;;11.30;99.90;;;;;;5048852;28;20720;-91
2023/11/19 06:04:54;;;;;;;9.50;4.30;;;11.40;99.90;;;;;;5048920;28;20072;-90
2023/11/19 06:07:20;;;;;;;15.35;5.28;;;11.40;99.90;;;;;;5049344;28;20037;-90
2023/11/19 06:09:45;;;;;;;10.00;4.85;;;11.40;99.90;;;;;;5063884;28;20021;-91
2023/11/19 06:12:12;;;;;;;9.60;4.35;;;11.50;99.90;;;;;;5047732;28;20111;-90
2023/11/19 06:14:37;;;;;;;16.02;5.18;;;11.40;99.90;;;;;;5045384;28;20029;-90
2023/11/19 06:17:04;;;;;;;11.30;5.22;;;11.50;99.90;;;;;;5061289;28;20033;-90
2023/11/19 06:19:34;;;;;;;18.38;5.97;;;11.50;99.90;;;;;;5060833;28;20034;-90
2023/11/19 06:22:03;;;;;;;10.80;4.55;;;11.60;99.90;;;;;;5043447;28;20399;-90
2023/11/19 06:24:28;;;;;;;8.40;4.63;;;11.60;99.90;;;;;;5049744;28;20036;-91
2023/11/19 06:26:54;;;;;;;12.93;4.95;;;11.60;99.90;;;;;;5047455;28;20033;-91
2023/11/19 06:29:20;;;;;;;13.15;4.68;;;11.60;99.90;;;;;;5057656;28;20610;-90
2023/11/19 06:31:48;;;;;;;14.02;4.75;;;11.70;99.90;;;;;;5046571;28;20029;-91
2023/11/19 06:34:16;;;;;;;13.73;4.80;;;11.70;99.90;;;;;;5043841;28;20083;-91
2023/11/19 06:36:43;;;;;;;12.82;4.65;;;11.70;99.90;;;;;;5045511;28;20035;-90
2023/11/19 06:39:10;;;;;;;14.15;5.00;;;11.80;99.90;;;;;;5048076;28;20017;-91
2023/11/19 06:41:39;;;;;;;14.70;4.30;;;11.90;99.90;;;;;;5060577;28;20021;-91
2023/11/19 06:44:04;;;;;;;17.73;4.38;;;11.90;99.90;;;;;;5055479;28;20227;-91
2023/11/19 06:46:31;;;;;;;24.85;4.82;;;11.90;99.90;;;;;;5044002;28;20619;-91
2023/11/19 06:48:57;;;;;;;13.52;4.47;;;11.90;99.90;;;;;;5045712;28;20032;-91
2023/11/19 06:51:22;;;;;;;19.77;4.78;;;12.00;99.90;;;;;;5049950;28;20040;-89
2023/11/19 06:53:48;;;;;;;17.48;4.40;;;12.00;99.90;;;;;;5049385;28;20396;-91
2023/11/19 06:56:23;;;;;;;23.05;4.20;;;12.10;99.90;;;;;;5049044;28;20108;-92
2023/11/19 06:58:49;;;;;;;17.40;3.75;;;12.10;99.90;;;;;;5048335;28;20052;-89
2023/11/19 07:01:16;;;;;;;25.83;4.55;;;12.10;99.90;;;;;;5045649;28;20112;-91
2023/11/19 07:03:41;;;;;;;14.93;3.70;;;12.20;99.90;;;;;;5049102;28;20048;-91
2023/11/19 07:06:09;;;;;;;15.73;4.15;;;12.10;99.90;;;;;;5047757;28;20539;-90
2023/11/19 07:08:36;;;;;;;;;;;12.10;99.90;;;;;;5059173;28;20028;-90
2023/11/19 07:11:03;;;;;;;15.32;4.15;;;12.20;99.90;;;;;;5045800;28;19963;-92
2023/11/19 07:13:31;;;;;;;20.65;4.03;;;12.10;99.90;;;;;;5046620;28;20487;-90
2023/11/19 07:15:57;;;;;;;16.75;4.05;;;12.20;99.90;;;;;;5043271;28;20037;-91
2023/11/19 07:18:22;;;;;;;13.07;3.40;;;12.20;99.90;;;;;;5046398;28;20032;-90
2023/11/19 07:20:48;;;;;;;25.67;3.75;;;12.20;99.90;;;;;;5045388;28;20036;-90
2023/11/19 07:23:17;;;;;;;13.13;3.47;;;12.20;99.90;;;;;;5061498;28;20613;-91
2023/11/19 07:25:46;;;;;;;23.33;3.88;;;12.20;99.90;;;;;;5044514;28;20052;-88
2023/11/19 07:28:16;;;;;;;16.25;3.70;;;12.20;99.90;;;;;;5041989;28;20025;-90
2023/11/19 07:30:42;;;;;;;17.13;3.72;;;12.20;99.90;;;;;;5045290;28;20044;-90
2023/11/19 07:33:08;;;;;;;20.80;4.25;;;12.20;99.90;;;;;;5050215;28;20496;-91
2023/11/19 07:35:33;;;;;;;22.13;4.00;;;12.20;99.90;;;;;;5046609;28;20535;-90
2023/11/19 07:37:59;;;;;;;21.15;3.13;;;12.20;99.90;;;;;;5048691;28;20040;-90
2023/11/19 07:40:25;;;;;;;17.63;3.70;;;12.20;99.90;;;;;;5048830;28;20023;-89
2023/11/19 07:42:50;;;;;;;24.05;3.40;;;12.20;99.90;;;;;;5046401;28;20021;-90
2023/11/19 07:45:17;;;;;;;18.25;3.63;;;12.30;99.90;;;;;;5048275;28;20120;-90
2023/11/19 07:47:46;;;;;;;17.55;3.63;;;12.30;99.90;;;;;;5063364;28;20025;-91
2023/11/19 07:50:16;;;;;;;25.15;3.40;;;12.30;99.90;;;;;;5057501;28;20029;-90
2023/11/19 07:52:42;;;;;;;39.53;4.40;;;12.30;99.90;;;;;;5048664;28;20075;-90
2023/11/19 07:55:08;;;;;;;24.58;3.40;;;12.30;99.90;;;;;;5045522;28;20037;-90
2023/11/19 07:57:34;;;;;;;24.38;3.92;;;12.20;99.90;;;;;;5046355;28;20500;-91
2023/11/19 08:00:01;;;;;;;28.17;3.80;;;12.30;99.90;;;;;;5060823;28;20550;-88
2023/11/19 08:02:29;;;;;;;17.55;3.08;;;12.20;99.90;;;;;;5059707;28;20025;-91
2023/11/19 08:04:55;;;;;;;22.05;4.32;;;12.30;99.90;;;;;;5060310;28;20272;-90
2023/11/19 08:07:23;;;;;;;21.75;3.70;;;12.30;99.90;;;;;;5046009;28;20480;-89
2023/11/19 08:09:48;;;;;;;;;;;12.30;99.90;;;;;;5061941;28;20079;-90
2023/11/19 08:12:15;;;;;;;35.00;4.22;;;12.20;99.90;;;;;;5062606;28;19909;-90
2023/11/19 08:14:41;;;;;;;28.42;3.97;;;12.30;99.90;;;;;;5055576;28;20035;-88
2023/11/19 08:17:09;;;;;;;23.80;3.63;;;12.20;99.90;;;;;;5043908;28;20029;-91
2023/11/19 08:19:39;;;;;;;26.30;4.00;;;12.20;99.90;;;;;;5043271;28;20021;-90
2023/11/19 08:22:04;;;;;;;23.45;4.40;;;12.30;99.90;;;;;;5031893;28;20971;-92
2023/11/19 08:24:30;;;;;;;29.38;4.00;;;12.30;99.90;;;;;;5042842;28;20112;-91
2023/11/19 08:26:56;;;;;;;27.50;4.10;;;12.30;99.90;;;;;;5063205;28;20033;-90
2023/11/19 08:29:21;;;;;;;28.98;4.57;;;12.30;99.90;;;;;;5045442;28;20037;-91
2023/11/19 08:31:49;;;;;;;26.15;3.92;;;12.30;99.90;;;;;;5043190;28;20035;-91
2023/11/19 08:34:15;;;;;;;;;;;12.30;99.90;;;;;;5026670;28;20025;-90
2023/11/19 08:36:41;;;;;;;29.52;4.47;;;12.30;99.90;;;;;;5060325;28;20460;-89
2023/11/19 08:39:08;;;;;;;33.92;4.32;;;12.30;99.90;;;;;;5061642;28;20036;-90
2023/11/19 08:41:34;;;;;;;33.15;4.00;;;12.30;99.90;;;;;;5044682;28;20029;-87
2023/11/19 08:44:01;;;;;;;32.45;4.63;;;12.40;99.90;;;;;;5062398;28;20029;-91
2023/11/19 08:46:26;;;;;;;33.58;5.40;;;12.30;99.90;;;;;;5062611;28;20576;-90
2023/11/19 08:48:52;;;;;;;36.97;4.45;;;12.30;99.90;;;;;;5046116;28;20028;-90
2023/11/19 08:51:18;;;;;;;30.48;4.32;;;12.30;99.90;;;;;;5046423;28;20037;-90
2023/11/19 08:53:43;;;;;;;32.72;4.10;;;12.40;99.90;;;;;;5047839;28;20029;-91
2023/11/19 08:56:14;;;;;;;25.48;4.38;;;12.30;99.90;;;;;;5047071;28;20029;-91
2023/11/19 08:58:39;;;;;;;24.25;4.00;;;12.30;99.90;;;;;;5034036;28;20034;-92
2023/11/19 09:01:05;;;;;;;22.95;3.67;;;12.30;99.90;;;;;;5047248;28;20060;-91
2023/11/19 09:03:32;;;;;;;29.58;5.10;;;12.30;99.90;;;;;;5053052;28;20021;-91
2023/11/19 09:05:57;;;;;;;25.75;4.43;;;12.30;99.90;;;;;;5052277;28;20080;-91
2023/11/19 09:08:25;;;;;;;28.02;4.80;;;12.30;99.90;;;;;;5031918;28;20029;-91
2023/11/19 09:10:51;;;;;;;36.65;4.78;;;12.40;99.90;;;;;;5051499;28;20427;-92
2023/11/19 09:13:20;;;;;;;33.83;4.88;;;12.40;99.90;;;;;;5050840;28;20044;-92
2023/11/19 09:15:48;;;;;;;27.67;4.55;;;12.40;99.90;;;;;;5047731;28;20029;-92
2023/11/19 09:18:14;;;;;;;30.10;5.03;;;12.40;99.90;;;;;;5050123;28;20029;-91
2023/11/19 09:20:42;;;;;;;32.33;5.70;;;12.40;99.90;;;;;;5048883;28;20112;-91
2023/11/19 09:23:08;;;;;;;24.13;3.97;;;12.40;99.90;;;;;;5044872;28;20140;-91
2023/11/19 09:25:34;;;;;;;27.08;4.45;;;12.40;99.90;;;;;;5049947;28;20541;-92
2023/11/19 09:28:02;;;;;;;28.73;4.05;;;12.40;99.90;;;;;;5062861;28;20033;-91
2023/11/19 09:30:28;;;;;;;33.20;4.32;;;12.40;99.90;;;;;;5063063;28;20106;-90
2023/11/19 09:32:56;;;;;;;32.60;4.50;;;12.40;99.90;;;;;;5068305;28;20492;-90
2023/11/19 09:35:24;;;;;;;31.13;4.30;;;12.50;99.90;;;;;;5031821;28;20108;-89
2023/11/19 09:37:50;;;;;;;;;;;12.50;99.90;;;;;;5067303;28;20043;-91
2023/11/19 09:40:18;;;;;;;36.47;5.40;;;12.60;99.90;;;;;;5050656;28;20295;-92
2023/11/19 09:42:47;;;;;;;29.70;4.57;;;12.60;99.90;;;;;;5048377;28;20028;-90
2023/11/19 09:45:20;;;;;;;29.77;4.80;;;12.60;99.90;;;;;;5047479;28;20021;-88
2023/11/19 09:47:46;;;;;;;24.23;5.10;;;12.60;99.90;;;;;;5048837;28;20606;-90
2023/11/19 09:50:18;;;;;;;31.30;4.95;;;12.60;99.90;;;;;;5045197;28;21885;-91
2023/11/19 09:52:45;;;;;;;36.70;5.15;;;12.60;99.90;;;;;;5060173;28;20039;-91
2023/11/19 09:55:12;;;;;;;31.45;4.43;;;12.60;99.90;;;;;;5029850;28;20036;-92
2023/11/19 09:57:44;;;;;;;31.80;5.05;;;12.60;99.90;;;;;;5061876;28;20622;-91
2023/11/19 10:00:11;;;;;;;38.20;4.68;;;12.50;99.90;;;;;;5061724;28;20029;-90
2023/11/19 10:02:37;;;;;;;30.90;3.73;;;12.50;99.90;;;;;;5046323;28;20032;-91
2023/11/19 10:05:10;;;;;;;31.80;4.95;;;12.50;99.90;;;;;;5061884;28;20025;-89
2023/11/19 10:07:35;;;;;;;35.40;4.20;;;12.50;99.90;;;;;;5044591;28;20451;-89
2023/11/19 10:10:07;;;;;;;27.70;4.50;;;12.60;99.90;;;;;;5048035;28;20025;-91
2023/11/19 10:12:33;;;;;;;38.80;4.60;;;12.60;99.90;;;;;;5048372;28;20071;-90
2023/11/19 10:14:59;;;;;;;34.58;5.85;;;12.60;99.90;;;;;;5064794;28;20434;-90
2023/11/19 10:17:32;;;;;;;36.78;4.68;;;12.70;99.90;;;;;;5059209;28;20048;-89
2023/11/19 10:19:58;;;;;;;33.10;4.43;;;12.70;99.90;;;;;;5046100;28;20133;-90
2023/11/19 10:22:26;;;;;;;25.98;4.80;;;12.70;99.90;;;;;;5048101;28;20271;-92
2023/11/19 10:24:52;;;;;;;26.48;4.15;;;12.70;99.90;;;;;;5043803;28;20021;-90
2023/11/19 10:27:24;;;;;;;37.47;4.80;;;12.70;99.90;;;;;;5048912;28;20040;-92
2023/11/19 10:29:50;;;;;;;28.23;4.90;;;12.80;99.90;;;;;;5046951;28;20025;-90
2023/11/19 10:32:17;;;;;;;40.15;5.38;;;12.70;99.90;;;;;;5049242;28;20036;-90
2023/11/19 10:34:44;;;;;;;28.38;4.22;;;12.80;99.90;;;;;;5046049;28;20107;-92
2023/11/19 10:37:28;;;;;;;29.15;3.97;;;12.80;99.90;;;;;;5044501;28;20052;-91
2023/11/19 10:39:54;;;;;;;27.95;4.15;;;12.90;99.90;;;;;;5047055;28;20314;-91
2023/11/19 10:42:22;;;;;;;29.67;4.82;;;12.90;99.90;;;;;;5046058;28;20016;-91
2023/11/19 10:44:49;;;;;;;35.97;4.32;;;12.90;99.90;;;;;;5045056;28;20033;-93
2023/11/19 10:47:18;;;;;;;24.50;4.40;;;12.90;99.90;;;;;;5043106;28;20029;-90
2023/11/19 10:49:46;;;;;;;31.58;3.88;;;13.00;99.90;;;;;;5043548;28;21656;-92
2023/11/19 10:52:16;;;;;;;29.20;4.20;;;13.00;99.90;;;;;;5039808;28;20491;-91
2023/11/19 10:54:49;;;;;;;25.05;4.05;;;13.10;99.90;;;;;;5040707;28;20032;-90
2023/11/19 10:57:21;;;;;;;26.35;4.15;;;13.20;99.90;;;;;;5056202;28;20235;-92
2023/11/19 10:59:47;;;;;;;20.13;3.53;;;13.20;99.90;;;;;;5049016;28;20025;-89
2023/11/19 11:02:19;;;;;;;25.55;3.95;;;13.30;99.90;;;;;;5048026;28;20029;-89
2023/11/19 11:04:47;;;;;;;32.47;3.97;;;13.30;99.90;;;;;;5045419;28;20028;-92
2023/11/19 11:07:14;;;;;;;22.80;3.80;;;13.30;99.90;;;;;;5065978;28;20025;-91
2023/11/19 11:09:41;;;;;;;43.97;4.13;;;13.30;99.90;;;;;;5047397;28;20055;-89
2023/11/19 11:12:11;;;;;;;31.30;3.80;;;13.30;99.90;;;;;;5049787;28;20037;-92
2023/11/19 11:14:40;;;;;;;29.90;4.97;;;13.30;99.90;;;;;;5025066;28;20029;-92
2023/11/19 11:17:08;;;;;;;24.52;4.22;;;13.40;99.90;;;;;;5032014;28;20125;-91
2023/11/19 11:19:34;;;;;;;28.10;4.35;;;13.40;99.90;;;;;;5060113;28;20083;-91
2023/11/19 11:22:06;;;;;;;28.08;4.00;;;13.40;99.90;;;;;;5043057;28;20687;-91
2023/11/19 11:24:47;;;;;;;34.42;4.32;;;13.40;99.90;;;;;;5046753;28;20043;-91
2023/11/19 11:27:37;;;;;;;28.52;4.57;;;13.30;99.90;;;;;;5038799;28;20045;-90
2023/11/19 11:30:31;;;;;;;34.67;5.15;;;13.30;99.90;;;;;;5044921;28;20112;-87
2023/11/19 11:33:23;;;;;;;27.00;3.70;;;13.30;99.90;;;;;;5060773;28;20042;-88
2023/11/19 11:36:16;;;;;;;22.10;3.55;;;13.30;99.90;;;;;;5045206;28;21465;-88
2023/11/19 11:38:42;;;;;;;26.23;4.47;;;13.30;99.90;;;;;;5045136;28;20158;-90
2023/11/19 11:41:26;;;;;;;29.15;4.03;;;13.30;99.90;;;;;;5044953;28;20116;-87
2023/11/19 11:44:00;;;;;;;29.85;4.40;;;13.30;99.90;;;;;;5052806;28;20074;-90
2023/11/19 11:46:31;;;;;;;27.45;4.75;;;13.30;99.90;;;;;;5060994;28;20028;-88
2023/11/19 11:49:01;;;;;;;34.47;4.85;;;13.30;99.90;;;;;;5048774;28;20093;-93
2023/11/19 11:51:45;;;;;;;37.10;4.90;;;13.30;99.90;;;;;;5039813;28;20061;-92
2023/11/19 11:54:32;;;;;;;32.92;5.40;;;13.20;99.90;;;;;;5059405;28;20037;-90
2023/11/19 11:57:09;;;;;;;26.52;4.45;;;13.30;99.90;;;;;;5042858;28;20035;-90
2023/11/19 11:59:48;;;;;;;40.40;4.78;;;13.20;99.90;;;;;;5059355;28;20050;-89
2023/11/19 12:02:16;;;;;;;25.52;4.45;;;13.20;99.90;;;;;;5055115;28;20056;-89
2023/11/19 12:04:46;;;;;;;31.92;5.00;;;13.20;99.90;;;;;;5042686;28;20082;-89
2023/11/19 12:07:17;;;;;;;34.55;4.53;;;13.20;99.90;;;;;;5062379;28;20025;-89
2023/11/19 12:09:48;;;;;;;27.27;4.30;;;13.20;99.90;;;;;;5035920;28;20118;-89
2023/11/19 12:12:14;;;;;;;31.42;5.35;;;13.20;99.90;;;;;;5044434;28;20044;-90
2023/11/19 12:14:58;;;;;;;31.65;4.07;;;13.20;99.90;;;;;;5038014;28;20045;-90
2023/11/19 12:17:33;;;;;;;25.33;4.53;;;13.20;99.90;;;;;;5033455;28;20725;-90
2023/11/19 12:20:05;;;;;;;37.05;4.70;;;13.20;99.90;;;;;;5040851;28;20140;-88
2023/11/19 12:22:31;;;;;;;28.33;4.93;;;13.20;99.90;;;;;;5040609;28;20488;-89
2023/11/19 12:24:57;;;;;;;29.08;4.68;;;13.30;99.90;;;;;;5040447;28;20130;-91
2023/11/19 12:27:23;;;;;;;35.35;5.18;;;13.20;99.90;;;;;;5044707;28;20028;-90
2023/11/19 12:29:50;;;;;;;37.15;4.38;;;13.30;99.90;;;;;;5036979;28;20037;-89
2023/11/19 12:32:16;;;;;;;33.17;5.20;;;13.30;99.90;;;;;;5038749;28;20455;-89
2023/11/19 12:34:44;;;;;;;23.85;4.85;;;13.30;99.90;;;;;;5047758;28;20037;-90
2023/11/19 12:37:12;;;;;;;30.23;4.82;;;13.20;99.90;;;;;;5047553;28;20044;-89
2023/11/19 12:39:38;;;;;;;;;;;13.30;99.90;;;;;;5049700;28;20064;-89
2023/11/19 12:42:05;;;;;;;35.75;5.13;;;13.30;99.90;;;;;;5062757;28;20205;-89
2023/11/19 12:44:34;;;;;;;29.95;4.90;;;13.30;99.90;;;;;;5030975;28;20037;-92
2023/11/19 12:47:07;;;;;;;30.90;4.63;;;13.30;99.90;;;;;;5046231;28;20103;-91
2023/11/19 12:49:35;;;;;;;30.42;4.82;;;13.30;99.90;;;;;;5041085;28;20036;-89